LFKJLIEE

Guest
Details From LFKJ - Napoleon Bonaparte
To LIEE - Cagliari Elmas
Flight Number -
Tags generated
Created
Modified
Stats Distance 161 nm / 298 km
Max Altitude 7,500 ft / 2,286 m
Waypoints 3
Social Downloads 0
Likes 0
Share VATSIM

Download

Looking for another format? Having issues loading an existing format? Contact us
Advertisement - Login to hide

Notes

Basic altitude profile: - Ascent Rate: 2500ft/min - Ascent Speed: 250kts - Cruise Altitude: 7500ft - Cruise Speed: 300kts - Descent Rate: 1500ft/min - Descent Speed: 200kts

Route

LFKJ MINKA LIEE

ID Type Via Altitude Latitude Longitude Leg Dist Tot Dist Heading (true) Name
O LFKJ APT - 0 ft / 0 m 41.92289˚ 8.79959˚ - 0 nm - Napoleon Bonaparte
MINKA FIX - 7,500 ft / 2,286 m 40.81917˚ 8.85556˚ 66 nm 66 nm 178° / 178° -
O LIEE APT - 0 ft / 0 m 39.25147˚ 9.05429˚ 94 nm 160 nm 174° / 175° Cagliari Elmas

Altitude Profile

Advertisement - Login to hide

LFKJ

Details ICAO LFKJ (AJA)
Name Napoleon Bonaparte
Region France
Timezone Europe/Paris (UTC+1.0)
Stats Elevation 18 ft / 5 m (AMSL)
Location 41.922886° 8.799587°
Runways 2
Magnetic Variation 2.329° E

METAR

LFKJ 151000Z AUTO 33005KT 260V030 7000 -RA FEW006 SCT010 BKN019 12/11 Q1003 TEMPO 3000 SHRA BKN005 FEW030TCU OVC040

Decode

TAF

TAF LFKJ 150800Z 1509/1609 05005KT 8000 FEW015 SCT030 BKN040 TEMPO 1509/1511 3000 SHRA BKN005 FEW030TCU OVC040 TEMPO 1512/1515 SHRA BKN010 FEW030TCU OVC040 BECMG 1518/1520 SCT030 BECMG 1522/1601 27010G20KT

Decode

Departure Runways

ID Width Length Bearing (true) Bearing (mag) Surface Threshold Offset Overrun Length
02 180 ft / 55 m 7,899 ft / 2,408 m 24.94° 22.61° Asphalt 0 ft / 0 m 164 ft / 50 m
10 98 ft / 30 m 3,447 ft / 1,051 m 94.35° 92.02° Concrete 0 ft / 0 m 164 ft / 50 m
20 180 ft / 55 m 7,899 ft / 2,408 m 204.95° 202.62° Asphalt 745 ft / 227 m 230 ft / 70 m
28 98 ft / 30 m 3,447 ft / 1,051 m 274.36° 272.03° Concrete 213 ft / 65 m 0 ft / 0 m

LIEE

Details ICAO LIEE (CAG)
Name Cagliari Elmas
Region Italy
Timezone Europe/Rome (UTC+1.0)
Stats Elevation 13 ft / 4 m (AMSL)
Location 39.251475° 9.054291°
Runways 1
Magnetic Variation 2.298° E

METAR

LIEE 150950Z 22011KT 9999 BKN045 16/12 Q1008

Decode

TAF

TAF LIEE 150500Z 1506/1606 23015KT 9999 BKN030 TEMPO 1509/1518 4000 SHRA BECMG 1518/1520 32015G25KT

Decode

Destination Runways

ID Width Length Bearing (true) Bearing (mag) Surface Threshold Offset Overrun Length
14 148 ft / 45 m 9,157 ft / 2,791 m 138.08° 135.78° Asphalt 0 ft / 0 m 187 ft / 57 m
32 148 ft / 45 m 9,157 ft / 2,791 m 318.09° 315.79° Asphalt 0 ft / 0 m 0 ft / 0 m

Approach Navaids

Runway Type Ident Frequency Range Bearing (true) Bearing (mag) Slope Elevation
32 Localiser IEL 109.50 MHz 18 nm / 33 km 318.12° 315.82° - 7 ft / 2 m (AMSL)
32 Glidescope IEL 109.50 MHz 10 nm / 19 km 318.08° 315.79° 3.00° 9 ft / 3 m (AMSL)
32 DME IEL 109.50 MHz 18 nm / 33 km - - - 26 ft / 8 m (AMSL)

Popular Alternatives